Time;durP1;ratioP1;P1;durP2;ratioP2;P2;SDS_P1;SDS_P2;PMS_P1;PMS_P2;Temp;Humidity;BMP_temperature;BMP_pressure;BME280_temperature;BME280_humidity;BME280_pressure;Samples;Min_cycle;Max_cycle;Signal;HPM_P1;HPM_P2
2022/10/01 10:34:18;;;;;;;1.40;0.70;;;;;;;9.87;92.43;96084.63;2068696;27;1280037;-74
2022/10/01 10:35:25;;;;;;;1.42;0.60;;;;;;;9.90;92.45;96088.84;2108664;28;20442;-76
2022/10/01 10:36:29;;;;;;;1.40;0.60;;;;;;;9.89;92.08;96092.38;2096861;28;20285;-78
2022/10/01 10:37:35;;;;;;;1.70;0.80;;;;;;;9.91;92.66;96090.53;2093717;28;20228;-75
2022/10/01 10:38:37;;;;;;;3.63;0.70;;;;;;;9.89;92.61;96090.63;2089668;28;20224;-72
2022/10/01 10:47:44;;;;;;;1.10;0.60;;;;;;;10.29;89.78;96053.81;2058261;27;1229524;-73
2022/10/01 10:48:57;;;;;;;2.10;1.30;;;;;;;10.61;90.09;96086.06;2098864;28;20294;-73
2022/10/01 10:50:03;;;;;;;8.00;1.13;;;;;;;10.60;88.48;96047.81;2099971;28;20245;-75
2022/10/01 10:51:06;;;;;;;2.47;0.70;;;;;;;10.79;88.39;96078.13;2092922;28;20563;-74
2022/10/01 10:52:29;;;;;;;1.80;0.68;;;;;;;10.90;87.79;96060.09;2076008;28;20899;-75
2022/10/01 10:53:44;;;;;;;1.10;0.60;;;;;;;11.30;86.85;96061.41;2078186;28;20238;-74
2022/10/01 10:54:48;;;;;;;1.10;0.65;;;;;;;11.11;86.80;96045.00;2078002;28;20288;-72
2022/10/01 10:56:01;;;;;;;1.60;0.80;;;;;;;11.15;87.31;96070.97;2068647;28;20284;-72
2022/10/01 10:57:30;;;;;;;2.25;0.90;;;;;;;11.11;87.57;96052.03;2093570;28;20291;-73
2022/10/01 10:58:36;;;;;;;3.83;2.15;;;;;;;11.04;88.00;96080.25;2076295;28;20611;-74
2022/10/01 10:59:38;;;;;;;1.38;0.70;;;;;;;10.82;88.76;96098.88;2078665;28;20288;-74
2022/10/01 11:00:51;;;;;;;1.20;0.60;;;;;;;10.57;88.37;96060.19;2076645;28;20217;-75
2022/10/01 11:01:52;;;;;;;1.48;0.80;;;;;;;10.51;89.82;96090.06;2076700;28;20714;-77
2022/10/01 11:30:39;;;;;;;1.63;0.70;;;;;;;10.10;92.38;96067.81;2076359;27;1223885;-70
2022/10/01 11:31:51;;;;;;;1.25;0.80;;;;;;;10.15;92.33;96070.19;2089070;28;20915;-70
2022/10/01 12:07:34;;;;;;;1.77;1.00;;;;;;;10.84;89.56;96097.00;2083182;28;20561;-73
2022/10/01 12:08:39;;;;;;;1.83;0.77;;;;;;;10.84;89.24;96097.00;2074902;28;20292;-74
2022/10/01 12:09:55;;;;;;;2.20;0.80;;;;;;;10.94;89.16;96100.81;2074012;28;20252;-70
2022/10/01 12:30:21;;;;;;;2.65;1.10;;;;;;;11.34;87.61;96134.34;2083168;28;21152;-68
2022/10/01 12:31:29;;;;;;;2.20;0.90;;;;;;;11.41;87.63;96142.69;2075472;28;20913;-68
2022/10/01 12:48:56;;;;;;;1.40;0.77;;;;;;;11.48;85.64;96103.97;2091976;28;20563;-68
2022/10/01 12:50:06;;;;;;;1.75;0.85;;;;;;;11.69;85.29;96136.72;2088166;28;20292;-68
2022/10/01 12:51:29;;;;;;;1.30;0.70;;;;;;;11.88;85.34;96144.38;2089092;28;20199;-69
2022/10/01 13:01:29;;;;;;;3.90;0.80;;;;;;;12.64;82.57;96153.03;2089137;27;20561;-67
2022/10/01 13:02:34;;;;;;;2.50;0.80;;;;;;;12.63;82.62;96156.56;2090023;28;21030;-68
2022/10/01 13:04:09;;;;;;;2.28;0.80;;;;;;;12.59;82.25;96131.50;2086135;28;20540;-68
2022/10/01 13:05:23;;;;;;;1.80;0.75;;;;;;;12.72;81.50;96148.19;2080916;28;20284;-69
2022/10/01 13:06:24;;;;;;;2.75;0.65;;;;;;;12.87;81.31;96159.50;2078968;28;20313;-67
2022/10/01 13:07:31;;;;;;;1.40;0.80;;;;;;;12.99;80.71;96164.91;2079623;28;20221;-69
2022/10/01 13:08:37;;;;;;;1.95;0.70;;;;;;;12.99;79.47;96154.41;2081474;28;20237;-70
2022/10/01 13:15:05;;;;;;;2.90;1.10;;;;;;;13.50;78.39;96159.13;2082275;28;20180;-70
2022/10/01 13:16:17;;;;;;;2.75;0.90;;;;;;;13.63;76.63;96151.31;2072971;28;20232;-70
2022/10/01 13:17:24;;;;;;;3.17;1.02;;;;;;;13.66;75.13;96169.47;2090898;28;20201;-72
2022/10/01 13:18:38;;;;;;;2.40;0.75;;;;;;;13.54;75.26;96152.75;2084398;28;20231;-71
2022/10/01 13:19:43;;;;;;;1.90;0.65;;;;;;;13.50;75.43;96161.75;2084904;28;20292;-70
2022/10/01 13:21:13;;;;;;;1.10;0.60;;;;;;;14.11;75.07;96151.66;2083108;28;20303;-70
2022/10/01 13:22:20;;;;;;;3.28;1.02;;;;;;;14.43;72.91;96156.50;2090229;28;20371;-69
2022/10/01 13:23:46;;;;;;;1.10;0.60;;;;;;;15.07;71.78;96147.78;2087980;28;20200;-69
2022/10/01 13:25:07;;;;;;;3.17;0.80;;;;;;;15.41;70.99;96168.22;2081465;28;20228;-70
2022/10/01 13:26:30;;;;;;;2.75;1.13;;;;;;;15.27;71.31;96158.66;2075220;28;20657;-70
2022/10/01 13:27:45;;;;;;;1.52;0.70;;;;;;;14.53;73.00;96144.44;2090142;28;20192;-69
2022/10/01 13:29:00;;;;;;;1.67;0.68;;;;;;;14.20;73.57;96168.56;2083352;28;20716;-69
2022/10/01 13:30:21;;;;;;;1.75;0.90;;;;;;;13.93;74.11;96139.75;2083818;28;20199;-70
2022/10/01 13:31:36;;;;;;;2.78;0.90;;;;;;;14.36;74.15;96171.84;2076434;28;20321;-69
2022/10/01 13:32:59;;;;;;;1.80;0.85;;;;;;;14.64;71.73;96164.75;2090849;28;20257;-69
2022/10/01 13:39:03;;;;;;;2.95;0.70;;;;;;;13.92;73.74;96174.81;2084989;28;20185;-70
2022/10/01 13:40:20;;;;;;;1.70;1.00;;;;;;;13.93;74.87;96166.84;2083194;28;20204;-70
2022/10/01 13:41:26;;;;;;;1.75;0.98;;;;;;;13.97;75.03;96164.88;2076610;28;20227;-70
2022/10/01 13:42:42;;;;;;;2.60;1.05;;;;;;;13.74;73.18;96135.72;2081646;28;20284;-69
2022/10/01 13:43:57;;;;;;;2.05;0.90;;;;;;;13.68;74.91;96162.34;2080867;28;20224;-67
2022/10/01 13:45:03;;;;;;;4.40;1.55;;;;;;;13.60;75.03;96168.09;2081484;28;20737;-68
2022/10/01 13:46:07;;;;;;;3.97;0.90;;;;;;;13.53;74.93;96169.41;2070369;28;20300;-68
2022/10/01 13:52:48;;;;;;;7.10;3.50;;;;;;;13.61;75.06;96161.06;2084537;28;20577;-67
2022/10/01 13:53:59;;;;;;;4.75;2.05;;;;;;;13.59;74.71;96147.22;2086401;28;20756;-68
2022/10/01 13:55:01;;;;;;;3.97;2.05;;;;;;;13.54;74.15;96169.31;2086750;28;20682;-69
2022/10/01 13:56:04;;;;;;;2.80;1.30;;;;;;;13.71;74.68;96167.38;2075337;28;20789;-67
2022/10/01 13:57:09;;;;;;;5.03;1.85;;;;;;;13.71;74.64;96177.88;2086326;28;20291;-68
2022/10/01 13:58:28;;;;;;;3.65;2.00;;;;;;;13.57;74.48;96151.72;2078332;28;20280;-68
2022/10/01 13:59:36;;;;;;;7.20;2.20;;;;;;;13.72;74.61;96171.69;2070046;28;20204;-68
2022/10/01 14:00:47;;;;;;;6.30;2.88;;;;;;;13.87;74.51;96162.81;2069951;28;20252;-68
2022/10/01 14:01:48;;;;;;;8.57;3.80;;;;;;;13.90;74.77;96167.03;2066856;28;20876;-68
2022/10/01 14:03:20;;;;;;;7.45;3.50;;;;;;;13.98;74.36;96166.53;2068826;28;20262;-68
2022/10/01 14:04:31;;;;;;;10.40;4.97;;;;;;;14.10;74.52;96172.75;2070581;28;20347;-67
2022/10/01 14:15:58;;;;;;;6.65;2.90;;;;;;;13.84;74.36;96165.66;2103946;28;20229;-66
2022/10/01 14:17:00;;;;;;;4.22;1.70;;;;;;;13.73;74.31;96155.03;2085787;28;20228;-67
2022/10/01 14:18:15;;;;;;;3.92;1.50;;;;;;;13.61;74.43;96156.66;2086195;28;20294;-67
2022/10/01 14:28:08;;;;;;;1.30;0.60;;;;;;;13.48;73.76;96164.47;2078752;27;1261291;-71
2022/10/01 14:29:43;;;;;;;2.25;1.00;;;;;;;13.52;73.57;96172.97;2099921;28;20196;-69
2022/10/01 14:31:18;;;;;;;2.83;1.35;;;;;;;13.57;73.55;96184.00;2093485;28;20319;-70
2022/10/01 14:32:57;;;;;;;4.22;1.35;;;;;;;13.61;73.15;96190.78;2090386;28;20230;-72
2022/10/01 14:39:02;;;;;;;2.93;0.70;;;;;;;14.07;71.76;96180.81;2068674;27;1218504;-70
2022/10/01 14:40:22;;;;;;;5.45;1.02;;;;;;;14.72;69.37;96189.69;2109226;28;20196;-69
2022/10/01 14:41:25;;;;;;;6.57;1.13;;;;;;;14.99;69.01;96186.91;2089465;28;20250;-70
2022/10/01 14:42:26;;;;;;;2.88;1.13;;;;;;;14.88;68.83;96187.69;2089603;28;20237;-70
2022/10/01 14:43:30;;;;;;;3.60;1.10;;;;;;;14.63;69.63;96186.69;2088718;28;20229;-69
2022/10/01 14:44:42;;;;;;;5.75;2.17;;;;;;;14.27;70.73;96193.50;2079700;28;20230;-72
2022/10/01 14:46:04;;;;;;;3.65;1.38;;;;;;;13.92;71.54;96193.19;2082313;28;20224;-71
2022/10/01 14:47:18;;;;;;;5.38;1.25;;;;;;;13.82;72.21;96195.56;2084723;28;20222;-72
2022/10/01 15:02:34;;;;;;;4.68;1.17;;;;;;;13.18;74.63;96202.16;2100378;27;20540;-72
2022/10/01 15:03:37;;;;;;;3.30;1.30;;;;;;;13.21;75.01;96212.44;2101883;28;20202;-70
2022/10/01 15:04:44;;;;;;;8.85;1.20;;;;;;;13.07;74.51;96183.63;2103378;28;20314;-71
2022/10/01 15:16:09;;;;;;;1.95;0.82;;;;;;;13.01;75.47;96204.97;2077837;28;20538;-69
2022/10/01 15:17:20;;;;;;;2.20;0.95;;;;;;;13.06;75.59;96219.50;2091419;28;20256;-69
2022/10/01 15:18:21;;;;;;;3.63;0.80;;;;;;;13.05;75.42;96216.94;2086638;28;20363;-69
2022/10/01 15:41:36;;;;;;;2.45;1.25;;;;;;;12.97;75.69;96224.44;2077309;28;20591;-71
2022/10/01 15:43:10;;;;;;;3.67;1.30;;;;;;;12.98;75.75;96228.75;2069941;28;20301;-72
2022/10/01 15:57:07;;;;;;;4.15;1.10;;;;;;;14.23;70.92;96241.06;2098317;28;20227;-71
2022/10/01 15:58:26;;;;;;;7.80;1.13;;;;;;;14.51;69.61;96237.44;2055600;28;1278664;-71
2022/10/01 15:59:32;;;;;;;4.05;1.77;;;;;;;14.57;68.89;96242.28;2096166;28;20286;-74
2022/10/01 16:00:51;;;;;;;3.83;0.82;;;;;;;14.56;69.01;96239.75;2098937;28;20282;-74
2022/10/01 16:01:53;;;;;;;2.30;0.70;;;;;;;14.28;70.17;96246.84;2100772;28;20479;-74
2022/10/01 16:02:56;;;;;;;1.50;0.70;;;;;;;14.18;70.02;96252.72;2108964;28;20202;-73
2022/10/01 16:04:08;;;;;;;2.38;0.60;;;;;;;14.01;69.95;96235.41;2109266;28;20653;-73
